Per Favore, prova con una nuova ricerca
| Simbolo | Borsa | Valuta | ||
|---|---|---|---|---|
| TCFP | Parigi | EUR | Tempo Reale | |
| 0IW5 | Londra | EUR | Tempo Reale | |
| THALS | Vienna | EUR | Tempo Reale | |
| THLLY | OTC Markets | USD | Ritardato | |
| TCFP | Francoforte | EUR | Ritardato | |
| HOp | BATS Europe | EUR | Ritardato |
| Data Inizio | Utente | Esprimiti | Apertura | Data Fine | Var. % |
|---|---|---|---|---|---|
| 04.09.2026 | Evariste Marion | 234.70 | -0.47% | ||
| 03.09.2026 | Tomasz Piekarz | 237.10 | -1.48% | ||
| 03.09.2026 | william perrier | 235.80 | -0.93% | ||
| 24.08.2026 | mac beal | 249.00 | -6.18% | ||
| 24.08.2026 | Bernard D | 253.10 | 24.08.2026 @ 251.00 | -0.83% | |
| 21.08.2026 | Muelle Flojo | 252.50 | 24.08.2026 @ 251.00 | -0.59% | |
| 20.08.2026 | Chris LEVESQUE | 258.10 | -9.49% | ||
| 20.08.2026 | Lucien Mazoyer | 258.10 | -9.49% | ||
| 19.08.2026 | Luis M Mor | 260.30 | -10.26% | ||
| 19.08.2026 | Michel Dudropt | 260.00 | -10.15% | ||
| 19.08.2026 | Serkan Yilmaz | 264.80 | -11.78% | ||
| 17.08.2026 | 267.90 | 24.08.2026 @ 251.00 | +6.31% | ||
| 17.08.2026 | Muelle Flojo | 270.40 | 17.08.2026 @ 266.90 | -1.29% | |
| 14.08.2026 | Warren PEACE | 270.40 | 04.09.2026 @ 233.60 | -13.61% | |
| 14.08.2026 | Javier Yebes | 271.60 | 17.08.2026 @ 266.90 | -1.73% | |
| 13.08.2026 | Emma Cassi | 273.50 | 17.08.2026 @ 266.90 | +2.41% | |
| 13.08.2026 | Siti mulya Ningsih | 273.50 | 04.09.2026 @ 233.60 | -14.59% | |
| 13.08.2026 | Siti mulya Ningsih | 273.40 | 13.08.2026 @ 273.60 | +0.07% | |
| 12.08.2026 | Rodolfo Bigoni | 270.60 | 17.08.2026 @ 266.90 | -1.37% | |
| 12.08.2026 | Victor Molina... | 270.90 | 04.09.2026 @ 233.60 | -13.77% | |
| 12.08.2026 | antonio medina | 267.80 | 17.08.2026 @ 266.90 | +0.34% | |
| 12.08.2026 | Oleksandr Petruchenko | 269.30 | 04.09.2026 @ 233.60 | -13.26% | |
| 11.08.2026 | El Youssoufi Si... | 268.60 | 04.09.2026 @ 233.60 | -13.03% | |
| 11.08.2026 | Fils MemeHelene | 267.40 | 17.08.2026 @ 266.90 | -0.19% | |
| 07.08.2026 | Muelle Flojo | 264.60 | 10.08.2026 @ 267.40 | +1.06% | |
| 07.08.2026 | Olivier Jeanneau | 269.10 | 28.08.2026 @ 244.70 | -9.07% | |
| 06.08.2026 | Adrien Darmon | 266.10 | 28.08.2026 @ 244.70 | +8.04% | |
| 05.08.2026 | Riccardo Brandtner | 265.10 | 10.08.2026 @ 267.40 | +0.87% | |
| 05.08.2026 | Luca Rizzo | 262.40 | 10.08.2026 @ 267.40 | +1.91% | |
| 05.08.2026 | Allain Thomas | 265.30 | 28.08.2026 @ 244.70 | -7.76% | |
| 04.08.2026 | Gil Pinho | 257.70 | 10.08.2026 @ 267.40 | +3.76% | |
| 03.08.2026 | Edduin Salinas | 250.70 | 10.08.2026 @ 267.40 | +6.66% | |
| 31.07.2026 | ERIC MESEGUER | 249.00 | 21.08.2026 @ 253.10 | +1.65% | |
| 29.07.2026 | Giovanni Esposito | 249.00 | 03.08.2026 @ 253.80 | +1.93% | |
| 29.07.2026 | Antony Maublanc | 249.30 | 03.08.2026 @ 253.80 | +1.81% | |
| 29.07.2026 | mac beal | 243.80 | 21.08.2026 @ 253.10 | +3.81% | |
| 28.07.2026 | PTF due pol | 248.20 | 03.08.2026 @ 253.80 | -2.26% | |
| 28.07.2026 | jmn Jidehem | 251.00 | 03.08.2026 @ 253.80 | +1.12% | |
| 28.07.2026 | Jean Claude COUDERC | 248.80 | 21.08.2026 @ 253.10 | +1.73% | |
| 27.07.2026 | Emma Cassi | 244.10 | 03.08.2026 @ 253.80 | -3.97% | |
| 27.07.2026 | Michael Mauvais | 237.10 | 21.08.2026 @ 253.10 | +6.75% | |
| 27.07.2026 | Muelle Flojo | 236.40 | 03.08.2026 @ 253.80 | +7.36% | |
| 27.07.2026 | Piero Rebosio | 236.40 | 27.07.2026 @ 243.40 | +2.96% | |
| 24.07.2026 | Tomasz Piekarz | 236.90 | 27.07.2026 @ 243.40 | +2.74% | |
| 24.07.2026 | Brigitte Hagemann | 237.00 | 14.08.2026 @ 270.40 | +14.09% | |
| 23.07.2026 | Jim Wilkerson | 238.20 | 14.08.2026 @ 270.40 | -13.52% | |
| 23.07.2026 | Serkan Yilmaz | 233.30 | 14.08.2026 @ 270.40 | +15.90% | |
| 21.07.2026 | John DOE | 227.50 | 27.07.2026 @ 243.40 | +6.99% | |
| 21.07.2026 | Leszek Bodzak | 223.90 | 27.07.2026 @ 243.40 | +8.71% | |
| 21.07.2026 | jmn Jidehem | 226.60 | 27.07.2026 @ 243.40 | +7.41% |
Sei sicuro di voler bloccare %USER_NAME%?
Confermando il blocco tu e %USER_NAME% non potrete più vedere reciprocamente i vostri post su Investing.com.
%USER_NAME% è stato aggiunto correttamente alla lista di utenti bloccati
Poiché hai appena sbloccato questa persona, devi aspettare 48 ore prima di bloccarla nuovamente.
Considero questo commento come:
Grazie!
La tua segnalazione è stata inviata ai nostri moderatori che la esamineranno